Terminal Aerodrome Forecast
Issued by NWS

Home | Current Version | Previous Version | Text Only | Print | Product List | Glossary On
Versions: 1 2 3 4 5 6 7 8 9 10 11 12 13
000
FTUS45 KRIW 210533
TAFCPR
TAF
KCPR 210533Z 2106/2206 11006KT P6SM SCT080 BKN150 WS015/20035KT
     FM211000 22007KT P6SM SCT070 BKN140 WS015/22040KT
     FM211500 23012KT P6SM SCT060 SCT110
     FM211800 22015G25KT P6SM SCT060 SCT110
     FM212300 01010KT P6SM SCT050 BKN080
     FM220200 04011KT P6SM SCT040 BKN070 WS017/21030KT=

USA.gov is the U.S. government's official web portal to all federal, state and local government web resources and services.